Terminal Aerodrome Forecast
Issued by NWS Wakefield, VA

Home | Current Version | Previous Version | Text Only | Print | Product List | Glossary On
Versions: 1 2 3 4 5 6 7 8 9 10 11 12 13 14 15
000
FTUS41 KAKQ 221157 CCA
TAFSBY
TAF COR
KSBY 221157Z 2212/2312 00000KT 4SM BR OVC001
      TEMPO 2212/2213 2SM BR
     FM221300 10003KT P6SM BKN004
     FM221400 13006KT P6SM BKN250
     FM230700 00000KT 2SM BR BKN250=

USA.gov is the U.S. government's official web portal to all federal, state and local government web resources and services.